Time,TemperatureF,DewpointF,PressureIn,WindDirection,WindDirectionDegrees,WindSpeedMPH,WindSpeedGustMPH,Humidity,HourlyPrecipIn,Conditions,Clouds,dailyrainin,SoftwareType,DateUTC
2013-06-21 00:01:00,70.1,54.2,30.26,South,171,3.0,5.0,57,0.00,,,0.00,Wunderground v.1.15,2013-06-21 04:01:00,
2013-06-21 00:02:00,70.0,54.1,30.26,South,171,3.0,5.0,57,0.00,,,0.00,Wunderground v.1.15,2013-06-21 04:02:00,
2013-06-21 00:04:00,70.0,54.1,30.26,South,179,3.0,7.0,57,0.00,,,0.00,Wunderground v.1.15,2013-06-21 04:04:00,
2013-06-21 00:08:00,70.0,54.5,30.26,SSW,193,3.0,7.0,58,0.00,,,0.00,Wunderground v.1.15,2013-06-21 04:08:00,
2013-06-21 00:14:00,69.9,54.9,30.25,SE,146,2.0,5.0,59,0.00,,,0.00,Wunderground v.1.15,2013-06-21 04:14:00,
2013-06-21 00:16:00,69.8,53.9,30.26,South,188,2.0,5.0,57,0.00,,,0.00,Wunderground v.1.15,2013-06-21 04:16:00,
2013-06-21 00:22:00,69.6,52.2,30.26,South,174,3.0,5.0,54,0.00,,,0.00,Wunderground v.1.15,2013-06-21 04:22:00,
2013-06-21 00:28:00,69.5,52.6,30.25,South,171,3.0,5.0,55,0.00,,,0.00,Wunderground v.1.15,2013-06-21 04:28:00,
2013-06-21 00:34:00,69.4,52.0,30.25,SSW,203,3.0,5.0,54,0.00,,,0.00,Wunderground v.1.15,2013-06-21 04:34:00,
2013-06-21 00:40:00,69.4,52.5,30.26,South,169,3.0,5.0,55,0.00,,,0.00,Wunderground v.1.15,2013-06-21 04:40:00,
2013-06-21 00:46:00,69.3,51.9,30.26,SSW,203,3.0,5.0,54,0.00,,,0.00,Wunderground v.1.15,2013-06-21 04:46:00,
2013-06-21 00:52:00,69.3,52.9,30.26,South,188,2.0,5.0,56,0.00,,,0.00,Wunderground v.1.15,2013-06-21 04:52:00,
2013-06-21 00:57:00,69.2,52.3,30.26,SW,220,2.0,5.0,55,0.00,,,0.00,Wunderground v.1.15,2013-06-21 04:57:00,
2013-06-21 01:03:00,69.1,51.2,30.26,SE,138,2.0,5.0,53,0.00,,,0.00,Wunderground v.1.15,2013-06-21 05:03:00,
2013-06-21 01:09:00,69.1,52.2,30.26,SSE,168,2.0,5.0,55,0.00,,,0.00,Wunderground v.1.15,2013-06-21 05:09:00,
2013-06-21 01:15:00,69.0,52.2,30.26,SSE,164,1.0,3.0,55,0.00,,,0.00,Wunderground v.1.15,2013-06-21 05:15:00,
2013-06-21 01:21:00,68.9,52.6,30.26,SSE,155,1.0,3.0,56,0.00,,,0.00,Wunderground v.1.15,2013-06-21 05:21:00,
2013-06-21 01:27:00,68.9,53.5,30.26,SSE,160,1.0,3.0,58,0.00,,,0.00,Wunderground v.1.15,2013-06-21 05:27:00,
2013-06-21 01:33:00,68.8,54.3,30.26,South,172,2.0,3.0,60,0.00,,,0.00,Wunderground v.1.15,2013-06-21 05:33:00,
2013-06-21 01:39:00,68.6,54.2,30.27,SSE,149,1.0,3.0,60,0.00,,,0.00,Wunderground v.1.15,2013-06-21 05:39:00,
2013-06-21 01:44:00,68.6,54.6,30.27,SSE,166,1.0,3.0,61,0.00,,,0.00,Wunderground v.1.15,2013-06-21 05:44:00,
2013-06-21 01:50:00,68.5,55.4,30.27,SSE,165,0.0,3.0,63,0.00,,,0.00,Wunderground v.1.15,2013-06-21 05:50:00,
2013-06-21 01:56:00,68.2,55.6,30.27,SSE,165,0.0,3.0,64,0.00,,,0.00,Wunderground v.1.15,2013-06-21 05:56:00,
2013-06-21 02:01:00,67.9,56.9,30.28,SSE,165,0.0,3.0,68,0.00,,,0.00,Wunderground v.1.15,2013-06-21 06:01:00,
2013-06-21 02:07:00,67.5,57.0,30.28,SSE,165,0.0,3.0,69,0.00,,,0.00,Wunderground v.1.15,2013-06-21 06:07:00,
2013-06-21 02:13:00,66.9,56.8,30.28,SSE,165,0.0,2.0,70,0.00,,,0.00,Wunderground v.1.15,2013-06-21 06:13:00,
2013-06-21 02:19:00,66.4,57.1,30.27,SSE,165,0.0,2.0,72,0.00,,,0.00,Wunderground v.1.15,2013-06-21 06:19:00,
2013-06-21 02:24:00,65.9,56.6,30.27,SSE,165,0.0,2.0,72,0.00,,,0.00,Wunderground v.1.15,2013-06-21 06:24:00,
2013-06-21 02:30:00,65.4,56.5,30.27,SSE,165,0.0,2.0,73,0.00,,,0.00,Wunderground v.1.15,2013-06-21 06:30:00,
2013-06-21 02:36:00,65.0,56.5,30.27,SSE,165,0.0,2.0,74,0.00,,,0.00,Wunderground v.1.15,2013-06-21 06:36:00,
2013-06-21 02:42:00,64.6,56.5,30.27,SSE,165,0.0,2.0,75,0.00,,,0.00,Wunderground v.1.15,2013-06-21 06:42:00,
2013-06-21 02:48:00,64.1,56.4,30.27,SSE,165,0.0,2.0,76,0.00,,,0.00,Wunderground v.1.15,2013-06-21 06:48:00,
2013-06-21 02:54:00,63.7,56.0,30.27,SSE,165,0.0,2.0,76,0.00,,,0.00,Wunderground v.1.15,2013-06-21 06:54:00,
2013-06-21 03:00:00,63.5,55.8,30.27,SSE,165,0.0,2.0,76,0.00,,,0.00,Wunderground v.1.15,2013-06-21 07:00:00,
2013-06-21 03:05:00,63.2,55.5,30.27,SSE,165,0.0,2.0,76,0.00,,,0.00,Wunderground v.1.15,2013-06-21 07:05:00,
2013-06-21 03:11:00,63.1,55.4,30.27,SSE,165,0.0,1.0,76,0.00,,,0.00,Wunderground v.1.15,2013-06-21 07:11:00,
2013-06-21 03:17:00,63.0,55.7,30.27,SSE,165,0.0,1.0,77,0.00,,,0.00,Wunderground v.1.15,2013-06-21 07:17:00,
2013-06-21 03:23:00,62.8,55.1,30.26,SSE,165,0.0,1.0,76,0.00,,,0.00,Wunderground v.1.15,2013-06-21 07:23:00,
2013-06-21 03:29:00,62.7,55.4,30.26,SSE,165,0.0,1.0,77,0.00,,,0.00,Wunderground v.1.15,2013-06-21 07:29:00,
2013-06-21 03:35:00,62.7,55.7,30.26,SSE,165,0.0,1.0,78,0.00,,,0.00,Wunderground v.1.15,2013-06-21 07:35:00,
2013-06-21 03:41:00,62.6,55.6,30.26,SSE,165,0.0,1.0,78,0.00,,,0.00,Wunderground v.1.15,2013-06-21 07:41:00,
2013-06-21 03:47:00,62.4,55.4,30.25,SSE,165,0.0,1.0,78,0.00,,,0.00,Wunderground v.1.15,2013-06-21 07:47:00,
2013-06-21 03:52:00,62.4,55.8,30.25,SSE,165,0.0,1.0,79,0.00,,,0.00,Wunderground v.1.15,2013-06-21 07:52:00,
2013-06-21 03:58:00,62.3,56.0,30.25,SSE,165,0.0,1.0,80,0.00,,,0.00,Wunderground v.1.15,2013-06-21 07:58:00,
2013-06-21 04:04:00,62.2,56.0,30.25,SSE,165,0.0,1.0,80,0.00,,,0.00,Wunderground v.1.15,2013-06-21 08:04:00,
2013-06-21 04:10:00,62.1,55.9,30.25,SSE,165,0.0,0.0,80,0.00,,,0.00,Wunderground v.1.15,2013-06-21 08:10:00,
2013-06-21 04:16:00,62.0,56.1,30.25,SSE,165,0.0,0.0,81,0.00,,,0.00,Wunderground v.1.15,2013-06-21 08:16:00,
2013-06-21 04:22:00,62.0,56.4,30.25,SSE,165,0.0,1.0,82,0.00,,,0.00,Wunderground v.1.15,2013-06-21 08:22:00,
2013-06-21 04:28:00,61.9,56.7,30.25,SSE,165,0.0,1.0,83,0.00,,,0.00,Wunderground v.1.15,2013-06-21 08:28:00,
2013-06-21 04:34:00,61.9,57.0,30.25,SSE,165,0.0,0.0,84,0.00,,,0.00,Wunderground v.1.15,2013-06-21 08:34:00,
2013-06-21 04:40:00,61.8,57.2,30.25,SSE,165,0.0,0.0,85,0.00,,,0.00,Wunderground v.1.15,2013-06-21 08:40:00,
2013-06-21 04:45:00,61.8,57.2,30.25,SSE,165,0.0,0.0,85,0.00,,,0.00,Wunderground v.1.15,2013-06-21 08:45:00,
2013-06-21 04:51:00,61.6,57.4,30.25,SSE,165,0.0,0.0,86,0.00,,,0.00,Wunderground v.1.15,2013-06-21 08:51:00,
2013-06-21 04:57:00,61.5,56.9,30.25,SSE,165,0.0,0.0,85,0.00,,,0.00,Wunderground v.1.15,2013-06-21 08:57:00,
2013-06-21 05:03:00,61.4,57.2,30.25,SSE,165,0.0,0.0,86,0.00,,,0.00,Wunderground v.1.15,2013-06-21 09:03:00,
2013-06-21 05:09:00,61.3,57.1,30.25,SSE,165,0.0,0.0,86,0.00,,,0.00,Wunderground v.1.15,2013-06-21 09:09:00,
2013-06-21 05:15:00,61.2,57.3,30.26,SSE,165,0.0,0.0,87,0.00,,,0.00,Wunderground v.1.15,2013-06-21 09:15:00,
2013-06-21 05:21:00,61.1,57.2,30.26,SSE,165,0.0,0.0,87,0.00,,,0.00,Wunderground v.1.15,2013-06-21 09:21:00,
2013-06-21 05:27:00,61.1,57.2,30.26,SSE,165,0.0,1.0,87,0.00,,,0.00,Wunderground v.1.15,2013-06-21 09:27:00,
2013-06-21 05:32:00,61.0,57.4,30.25,SSE,165,0.0,1.0,88,0.00,,,0.00,Wunderground v.1.15,2013-06-21 09:32:00,
2013-06-21 05:38:00,60.9,57.3,30.25,SSE,165,0.0,1.0,88,0.00,,,0.00,Wunderground v.1.15,2013-06-21 09:38:00,
2013-06-21 05:44:00,60.9,57.6,30.25,SSE,165,0.0,0.0,89,0.00,,,0.00,Wunderground v.1.15,2013-06-21 09:44:00,
2013-06-21 05:50:00,60.8,57.2,30.25,SSE,165,0.0,0.0,88,0.00,,,0.00,Wunderground v.1.15,2013-06-21 09:50:00,
2013-06-21 05:56:00,60.6,57.0,30.25,SSE,165,0.0,0.0,88,0.00,,,0.00,Wunderground v.1.15,2013-06-21 09:56:00,
2013-06-21 06:01:00,60.5,56.9,30.25,SSE,165,0.0,1.0,88,0.00,,,0.00,Wunderground v.1.15,2013-06-21 10:01:00,
2013-06-21 06:07:00,60.3,56.7,30.25,SSE,165,0.0,1.0,88,0.00,,,0.00,Wunderground v.1.15,2013-06-21 10:07:00,
2013-06-21 06:12:00,60.2,56.6,30.26,SSE,165,0.0,1.0,88,0.00,,,0.00,Wunderground v.1.15,2013-06-21 10:12:00,
2013-06-21 06:18:00,60.3,56.7,30.26,SSE,165,0.0,1.0,88,0.00,,,0.00,Wunderground v.1.15,2013-06-21 10:18:00,
2013-06-21 06:24:00,60.4,56.8,30.26,SSE,165,0.0,1.0,88,0.00,,,0.00,Wunderground v.1.15,2013-06-21 10:24:00,
2013-06-21 06:30:00,60.7,57.4,30.26,SSE,165,1.0,1.0,89,0.00,,,0.00,Wunderground v.1.15,2013-06-21 10:30:00,
2013-06-21 06:36:00,60.9,57.6,30.26,SSE,165,1.0,1.0,89,0.00,,,0.00,Wunderground v.1.15,2013-06-21 10:36:00,
2013-06-21 06:42:00,61.2,57.9,30.27,SSE,165,0.0,1.0,89,0.00,,,0.00,Wunderground v.1.15,2013-06-21 10:42:00,
2013-06-21 06:48:00,61.6,58.3,30.27,SSE,165,0.0,1.0,89,0.00,,,0.00,Wunderground v.1.15,2013-06-21 10:48:00,
2013-06-21 06:53:00,61.9,58.9,30.27,SSE,165,0.0,1.0,90,0.00,,,0.00,Wunderground v.1.15,2013-06-21 10:53:00,
2013-06-21 06:59:00,62.2,59.2,30.28,SSE,165,0.0,1.0,90,0.00,,,0.00,Wunderground v.1.15,2013-06-21 10:59:00,
2013-06-21 07:05:00,62.7,59.4,30.28,SSE,165,0.0,1.0,89,0.00,,,0.00,Wunderground v.1.15,2013-06-21 11:05:00,
2013-06-21 07:11:00,63.1,59.8,30.28,SSE,165,0.0,1.0,89,0.00,,,0.00,Wunderground v.1.15,2013-06-21 11:11:00,
2013-06-21 07:17:00,63.5,59.9,30.28,SSE,165,0.0,1.0,88,0.00,,,0.00,Wunderground v.1.15,2013-06-21 11:17:00,
2013-06-21 07:23:00,64.1,60.2,30.28,SSE,165,0.0,1.0,87,0.00,,,0.00,Wunderground v.1.15,2013-06-21 11:23:00,
2013-06-21 07:29:00,64.7,60.4,30.28,SSE,165,0.0,1.0,86,0.00,,,0.00,Wunderground v.1.15,2013-06-21 11:29:00,
2013-06-21 07:35:00,65.3,61.0,30.28,SSE,165,0.0,1.0,86,0.00,,,0.00,Wunderground v.1.15,2013-06-21 11:35:00,
2013-06-21 07:41:00,65.8,60.5,30.29,SSE,165,0.0,1.0,83,0.00,,,0.00,Wunderground v.1.15,2013-06-21 11:41:00,
2013-06-21 07:47:00,66.5,60.8,30.29,SSE,165,0.0,1.0,82,0.00,,,0.00,Wunderground v.1.15,2013-06-21 11:47:00,
2013-06-21 07:53:00,67.2,61.2,30.29,SSE,165,0.0,1.0,81,0.00,,,0.00,Wunderground v.1.15,2013-06-21 11:53:00,
2013-06-21 07:58:00,67.8,60.7,30.29,SSE,165,0.0,1.0,78,0.00,,,0.00,Wunderground v.1.15,2013-06-21 11:58:00,
2013-06-21 08:03:00,68.5,61.0,30.29,SSE,165,0.0,2.0,77,0.00,,,0.00,Wunderground v.1.15,2013-06-21 12:03:00,
2013-06-21 08:09:00,68.9,60.3,30.30,SSE,165,0.0,2.0,74,0.00,,,0.00,Wunderground v.1.15,2013-06-21 12:09:00,
2013-06-21 08:15:00,69.4,60.4,30.29,NNE,22,1.0,3.0,73,0.00,,,0.00,Wunderground v.1.15,2013-06-21 12:15:00,
2013-06-21 08:20:00,69.8,60.4,30.29,NNE,22,1.0,1.0,72,0.00,,,0.00,Wunderground v.1.15,2013-06-21 12:20:00,
2013-06-21 08:26:00,70.2,60.7,30.29,NNE,30,1.0,1.0,72,0.00,,,0.00,Wunderground v.1.15,2013-06-21 12:26:00,
2013-06-21 08:32:00,70.7,61.2,30.29,NNE,21,1.0,1.0,72,0.00,,,0.00,Wunderground v.1.15,2013-06-21 12:32:00,
2013-06-21 08:38:00,71.0,60.7,30.29,NNE,21,1.0,2.0,70,0.00,,,0.00,Wunderground v.1.15,2013-06-21 12:38:00,
2013-06-21 08:44:00,71.4,61.5,30.29,NNE,16,1.0,3.0,71,0.00,,,0.00,Wunderground v.1.15,2013-06-21 12:44:00,
2013-06-21 08:50:00,71.7,62.2,30.29,NNE,16,1.0,1.0,72,0.00,,,0.00,Wunderground v.1.15,2013-06-21 12:50:00,
2013-06-21 08:56:00,72.3,63.5,30.29,NE,52,1.0,3.0,74,0.00,,,0.00,Wunderground v.1.15,2013-06-21 12:56:00,
2013-06-21 09:01:00,72.5,63.4,30.29,NNE,28,1.0,2.0,73,0.00,,,0.00,Wunderground v.1.15,2013-06-21 13:01:00,
2013-06-21 09:07:00,72.8,63.6,30.29,NNE,27,1.0,2.0,73,0.00,,,0.00,Wunderground v.1.15,2013-06-21 13:07:00,
2013-06-21 09:12:00,73.2,63.6,30.29,East,92,1.0,2.0,72,0.00,,,0.00,Wunderground v.1.15,2013-06-21 13:12:00,
2013-06-21 09:17:00,73.5,63.9,30.29,East,92,1.0,3.0,72,0.00,,,0.00,Wunderground v.1.15,2013-06-21 13:17:00,
2013-06-21 09:23:00,73.4,63.8,30.29,East,89,2.0,3.0,72,0.00,,,0.00,Wunderground v.1.15,2013-06-21 13:23:00,
2013-06-21 09:29:00,73.5,64.3,30.29,East,89,2.0,3.0,73,0.00,,,0.00,Wunderground v.1.15,2013-06-21 13:29:00,
2013-06-21 09:35:00,73.5,63.9,30.29,East,89,2.0,2.0,72,0.00,,,0.00,Wunderground v.1.15,2013-06-21 13:35:00,
2013-06-21 09:40:00,74.2,65.0,30.29,East,89,1.0,2.0,73,0.00,,,0.00,Wunderground v.1.15,2013-06-21 13:40:00,
2013-06-21 09:46:00,74.4,64.8,30.28,East,89,1.0,2.0,72,0.00,,,0.00,Wunderground v.1.15,2013-06-21 13:46:00,
2013-06-21 09:52:00,73.8,64.6,30.28,East,84,2.0,4.0,73,0.00,,,0.00,Wunderground v.1.15,2013-06-21 13:52:00,
2013-06-21 09:58:00,73.8,65.4,30.28,ENE,76,3.0,4.0,75,0.00,,,0.00,Wunderground v.1.15,2013-06-21 13:58:00,
2013-06-21 10:03:00,74.0,64.8,30.28,ENE,78,3.0,4.0,73,0.00,,,0.00,Wunderground v.1.15,2013-06-21 14:03:00,
2013-06-21 10:08:00,74.1,65.3,30.28,ENE,77,2.0,4.0,74,0.00,,,0.00,Wunderground v.1.15,2013-06-21 14:08:00,
2013-06-21 10:14:00,74.3,64.7,30.28,East,79,2.0,4.0,72,0.00,,,0.00,Wunderground v.1.15,2013-06-21 14:14:00,
2013-06-21 10:19:00,74.9,65.3,30.28,ESE,104,2.0,4.0,72,0.00,,,0.00,Wunderground v.1.15,2013-06-21 14:19:00,
2013-06-21 10:25:00,75.1,65.1,30.28,East,80,2.0,4.0,71,0.00,,,0.00,Wunderground v.1.15,2013-06-21 14:25:00,
2013-06-21 10:31:00,75.4,64.9,30.28,East,80,2.0,4.0,70,0.00,,,0.00,Wunderground v.1.15,2013-06-21 14:31:00,
2013-06-21 10:37:00,75.6,64.7,30.28,ENE,78,2.0,4.0,69,0.00,,,0.00,Wunderground v.1.15,2013-06-21 14:37:00,
2013-06-21 10:43:00,75.7,64.8,30.29,ENE,62,2.0,4.0,69,0.00,,,0.00,Wunderground v.1.15,2013-06-21 14:43:00,
2013-06-21 10:49:00,75.8,64.5,30.29,East,84,2.0,4.0,68,0.00,,,0.00,Wunderground v.1.15,2013-06-21 14:49:00,
2013-06-21 10:55:00,75.9,64.2,30.29,ENE,70,2.0,4.0,67,0.00,,,0.00,Wunderground v.1.15,2013-06-21 14:55:00,
2013-06-21 11:01:00,75.9,64.2,30.29,ENE,72,2.0,4.0,67,0.00,,,0.00,Wunderground v.1.15,2013-06-21 15:01:00,
2013-06-21 11:06:00,75.9,64.2,30.29,ENE,67,2.0,4.0,67,0.00,,,0.00,Wunderground v.1.15,2013-06-21 15:06:00,
2013-06-21 11:12:00,76.1,64.3,30.29,ENE,68,2.0,2.0,67,0.00,,,0.00,Wunderground v.1.15,2013-06-21 15:12:00,
2013-06-21 11:18:00,76.3,65.4,30.29,ENE,68,2.0,3.0,69,0.00,,,0.00,Wunderground v.1.15,2013-06-21 15:18:00,
2013-06-21 11:24:00,76.7,64.9,30.29,ENE,76,2.0,3.0,67,0.00,,,0.00,Wunderground v.1.15,2013-06-21 15:24:00,
2013-06-21 11:30:00,76.3,64.1,30.29,ENE,76,2.0,2.0,66,0.00,,,0.00,Wunderground v.1.15,2013-06-21 15:30:00,
2013-06-21 11:36:00,76.7,64.5,30.29,ENE,76,2.0,2.0,66,0.00,,,0.00,Wunderground v.1.15,2013-06-21 15:36:00,
2013-06-21 11:41:00,76.8,64.1,30.29,ENE,76,2.0,2.0,65,0.00,,,0.00,Wunderground v.1.15,2013-06-21 15:41:00,
2013-06-21 11:47:00,77.2,64.1,30.29,ENE,76,2.0,3.0,64,0.00,,,0.00,Wunderground v.1.15,2013-06-21 15:47:00,
2013-06-21 11:53:00,77.1,64.4,30.29,ENE,76,2.0,3.0,65,0.00,,,0.00,Wunderground v.1.15,2013-06-21 15:53:00,
2013-06-21 11:59:00,77.5,65.2,30.29,ENE,76,2.0,3.0,66,0.00,,,0.00,Wunderground v.1.15,2013-06-21 15:59:00,
2013-06-21 12:05:00,77.6,64.9,30.29,ENE,76,2.0,3.0,65,0.00,,,0.00,Wunderground v.1.15,2013-06-21 16:05:00,
2013-06-21 12:10:00,77.5,64.8,30.29,East,91,2.0,3.0,65,0.00,,,0.00,Wunderground v.1.15,2013-06-21 16:10:00,
2013-06-21 12:16:00,77.8,65.1,30.29,East,91,2.0,3.0,65,0.00,,,0.00,Wunderground v.1.15,2013-06-21 16:16:00,
2013-06-21 12:21:00,77.9,64.7,30.29,ESE,102,2.0,3.0,64,0.00,,,0.00,Wunderground v.1.15,2013-06-21 16:21:00,
2013-06-21 12:27:00,78.0,64.4,30.29,ESE,107,2.0,3.0,63,0.00,,,0.00,Wunderground v.1.15,2013-06-21 16:27:00,
2013-06-21 12:33:00,78.1,64.0,30.29,ESE,107,2.0,3.0,62,0.00,,,0.00,Wunderground v.1.15,2013-06-21 16:33:00,
2013-06-21 12:38:00,78.3,63.7,30.29,ESE,107,2.0,3.0,61,0.00,,,0.00,Wunderground v.1.15,2013-06-21 16:38:00,
2013-06-21 12:44:00,78.5,63.0,30.29,ESE,116,2.0,4.0,59,0.00,,,0.00,Wunderground v.1.15,2013-06-21 16:44:00,
2013-06-21 12:49:00,78.9,61.9,30.29,ESE,116,2.0,4.0,56,0.00,,,0.00,Wunderground v.1.15,2013-06-21 16:49:00,
2013-06-21 12:55:00,79.1,63.1,30.29,ESE,116,1.0,3.0,58,0.00,,,0.00,Wunderground v.1.15,2013-06-21 16:55:00,
2013-06-21 13:01:00,79.1,62.6,30.28,ESE,116,2.0,3.0,57,0.00,,,0.00,Wunderground v.1.15,2013-06-21 17:01:00,
2013-06-21 13:07:00,79.3,62.2,30.28,ESE,116,2.0,4.0,56,0.00,,,0.00,Wunderground v.1.15,2013-06-21 17:07:00,
2013-06-21 13:13:00,79.3,61.7,30.29,ESE,116,2.0,3.0,55,0.00,,,0.00,Wunderground v.1.15,2013-06-21 17:13:00,
2013-06-21 13:18:00,79.5,60.9,30.28,ESE,116,2.0,3.0,53,0.00,,,0.00,Wunderground v.1.15,2013-06-21 17:18:00,
2013-06-21 13:24:00,80.1,61.4,30.29,ESE,116,2.0,3.0,53,0.00,,,0.00,Wunderground v.1.15,2013-06-21 17:24:00,
2013-06-21 13:30:00,80.0,60.8,30.29,ESE,117,2.0,3.0,52,0.00,,,0.00,Wunderground v.1.15,2013-06-21 17:30:00,
2013-06-21 13:35:00,80.2,59.3,30.29,ESE,117,2.0,3.0,49,0.00,,,0.00,Wunderground v.1.15,2013-06-21 17:35:00,
2013-06-21 13:40:00,80.1,58.6,30.29,ESE,117,2.0,2.0,48,0.00,,,0.00,Wunderground v.1.15,2013-06-21 17:40:00,
2013-06-21 13:46:00,80.0,60.2,30.29,ESE,117,2.0,3.0,51,0.00,,,0.00,Wunderground v.1.15,2013-06-21 17:46:00,
2013-06-21 13:48:00,80.1,60.3,30.28,ESE,117,2.0,3.0,51,0.00,,,0.00,Wunderground v.1.15,2013-06-21 17:48:00,
2013-06-21 13:50:00,80.3,60.5,30.28,ESE,117,2.0,3.0,51,0.00,,,0.00,Wunderground v.1.15,2013-06-21 17:50:00,
2013-06-21 13:55:00,80.1,59.2,30.28,ESE,117,2.0,3.0,49,0.00,,,0.00,Wunderground v.1.15,2013-06-21 17:55:00,
2013-06-21 14:00:00,79.2,59.5,30.29,ENE,76,2.0,2.0,51,0.00,,,0.00,Wunderground v.1.15,2013-06-21 18:00:00,
2013-06-21 14:06:00,79.0,59.3,30.29,ENE,71,3.0,4.0,51,0.00,,,0.00,Wunderground v.1.15,2013-06-21 18:06:00,
2013-06-21 14:09:00,79.8,61.1,30.28,ENE,72,2.0,4.0,53,0.00,,,0.00,Wunderground v.1.15,2013-06-21 18:09:00,
2013-06-21 14:14:00,80.6,59.7,30.28,ESE,107,1.0,4.0,49,0.00,,,0.00,Wunderground v.1.15,2013-06-21 18:14:00,
2013-06-21 14:20:00,81.0,59.5,30.28,ESE,107,1.0,4.0,48,0.00,,,0.00,Wunderground v.1.15,2013-06-21 18:20:00,
2013-06-21 14:24:00,81.2,59.6,30.27,ESE,107,2.0,4.0,48,0.00,,,0.00,Wunderground v.1.15,2013-06-21 18:24:00,
2013-06-21 14:25:00,81.2,60.2,30.27,ESE,107,2.0,4.0,49,0.00,,,0.00,Wunderground v.1.15,2013-06-21 18:25:00,
2013-06-21 14:26:00,81.2,60.2,30.27,SE,140,2.0,4.0,49,0.00,,,0.00,Wunderground v.1.15,2013-06-21 18:26:00,
2013-06-21 14:31:00,81.5,58.1,30.27,SE,140,2.0,4.0,45,0.00,,,0.00,Wunderground v.1.15,2013-06-21 18:31:00,
2013-06-21 14:32:00,81.6,58.2,30.27,SE,140,1.0,4.0,45,0.00,,,0.00,Wunderground v.1.15,2013-06-21 18:32:00,
2013-06-21 14:38:00,81.8,58.4,30.27,SE,140,2.0,4.0,45,0.00,,,0.00,Wunderground v.1.15,2013-06-21 18:38:00,
2013-06-21 14:43:00,81.8,58.4,30.27,SE,136,2.0,4.0,45,0.00,,,0.00,Wunderground v.1.15,2013-06-21 18:43:00,
2013-06-21 14:46:00,81.9,57.8,30.27,SE,136,2.0,4.0,44,0.00,,,0.00,Wunderground v.1.15,2013-06-21 18:46:00,
2013-06-21 14:47:00,81.9,57.8,30.27,SE,136,2.0,4.0,44,0.00,,,0.00,Wunderground v.1.15,2013-06-21 18:47:00,
2013-06-21 14:48:00,82.0,59.2,30.27,East,95,2.0,4.0,46,0.00,,,0.00,Wunderground v.1.15,2013-06-21 18:48:00,
2013-06-21 14:51:00,82.1,59.3,30.27,East,95,1.0,4.0,46,0.00,,,0.00,Wunderground v.1.15,2013-06-21 18:51:00,
2013-06-21 14:52:00,82.1,58.7,30.27,East,95,1.0,4.0,45,0.00,,,0.00,Wunderground v.1.15,2013-06-21 18:52:00,
2013-06-21 14:58:00,82.1,59.3,30.28,East,95,2.0,4.0,46,0.00,,,0.00,Wunderground v.1.15,2013-06-21 18:58:00,
2013-06-21 15:03:00,82.1,59.3,30.28,East,95,1.0,3.0,46,0.00,,,0.00,Wunderground v.1.15,2013-06-21 19:03:00,
2013-06-21 15:09:00,82.0,59.8,30.28,East,95,1.0,3.0,47,0.00,,,0.00,Wunderground v.1.15,2013-06-21 19:09:00,
2013-06-21 15:14:00,81.9,60.3,30.27,ESE,116,1.0,3.0,48,0.00,,,0.00,Wunderground v.1.15,2013-06-21 19:14:00,
2013-06-21 15:19:00,81.8,59.6,30.27,ESE,116,2.0,3.0,47,0.00,,,0.00,Wunderground v.1.15,2013-06-21 19:19:00,
2013-06-21 15:21:00,81.8,60.2,30.27,ESE,116,2.0,3.0,48,0.00,,,0.00,Wunderground v.1.15,2013-06-21 19:21:00,
2013-06-21 15:26:00,81.4,59.8,30.27,SE,125,2.0,4.0,48,0.00,,,0.00,Wunderground v.1.15,2013-06-21 19:26:00,
2013-06-21 15:32:00,81.0,60.6,30.26,ESE,109,2.0,3.0,50,0.00,,,0.00,Wunderground v.1.15,2013-06-21 19:32:00,
2013-06-21 15:38:00,80.5,61.8,30.27,South,184,2.0,4.0,53,0.00,,,0.00,Wunderground v.1.15,2013-06-21 19:38:00,
2013-06-21 15:43:00,80.4,61.2,30.26,SE,139,2.0,3.0,52,0.00,,,0.00,Wunderground v.1.15,2013-06-21 19:43:00,
2013-06-21 15:49:00,80.3,62.1,30.26,SSE,160,2.0,3.0,54,0.00,,,0.00,Wunderground v.1.15,2013-06-21 19:49:00,
2013-06-21 15:54:00,80.1,62.5,30.26,ESE,117,2.0,4.0,55,0.00,,,0.00,Wunderground v.1.15,2013-06-21 19:54:00,
2013-06-21 16:00:00,80.0,62.9,30.26,SE,140,2.0,3.0,56,0.00,,,0.00,Wunderground v.1.15,2013-06-21 20:00:00,
2013-06-21 16:06:00,79.8,62.2,30.26,SE,134,2.0,4.0,55,0.00,,,0.00,Wunderground v.1.15,2013-06-21 20:06:00,
2013-06-21 16:12:00,79.6,63.5,30.26,SE,130,2.0,4.0,58,0.00,,,0.00,Wunderground v.1.15,2013-06-21 20:12:00,
2013-06-21 16:15:00,79.4,61.8,30.26,South,183,2.0,4.0,55,0.00,,,0.00,Wunderground v.1.15,2013-06-21 20:15:00,
2013-06-21 16:21:00,79.1,62.6,30.26,ESE,117,2.0,4.0,57,0.00,,,0.00,Wunderground v.1.15,2013-06-21 20:21:00,
2013-06-21 16:27:00,79.1,64.0,30.26,SE,140,2.0,4.0,60,0.00,,,0.00,Wunderground v.1.15,2013-06-21 20:27:00,
2013-06-21 16:33:00,79.0,63.4,30.26,ESE,122,2.0,4.0,59,0.00,,,0.00,Wunderground v.1.15,2013-06-21 20:33:00,
2013-06-21 16:39:00,79.0,63.9,30.26,SE,126,2.0,4.0,60,0.00,,,0.00,Wunderground v.1.15,2013-06-21 20:39:00,
2013-06-21 16:44:00,79.0,63.9,30.26,ESE,116,2.0,4.0,60,0.00,,,0.00,Wunderground v.1.15,2013-06-21 20:44:00,
2013-06-21 16:50:00,79.1,64.0,30.25,ESE,111,1.0,4.0,60,0.00,,,0.00,Wunderground v.1.15,2013-06-21 20:50:00,
2013-06-21 16:56:00,79.0,63.9,30.25,SE,138,2.0,4.0,60,0.00,,,0.00,Wunderground v.1.15,2013-06-21 20:56:00,
2013-06-21 17:01:00,79.2,64.1,30.25,ESE,113,2.0,4.0,60,0.00,,,0.00,Wunderground v.1.15,2013-06-21 21:01:00,
2013-06-21 17:04:00,79.1,64.5,30.24,ESE,117,2.0,4.0,61,0.00,,,0.00,Wunderground v.1.15,2013-06-21 21:04:00,
2013-06-21 17:10:00,78.9,64.3,30.24,SE,140,2.0,3.0,61,0.00,,,0.00,Wunderground v.1.15,2013-06-21 21:10:00,
2013-06-21 17:16:00,78.8,65.1,30.24,SSE,148,2.0,3.0,63,0.00,,,0.00,Wunderground v.1.15,2013-06-21 21:16:00,
2013-06-21 17:22:00,78.6,65.4,30.24,SE,126,2.0,3.0,64,0.00,,,0.00,Wunderground v.1.15,2013-06-21 21:22:00,
2013-06-21 17:27:00,78.4,65.2,30.23,South,176,2.0,3.0,64,0.00,,,0.00,Wunderground v.1.15,2013-06-21 21:27:00,
2013-06-21 17:33:00,78.2,65.0,30.23,SE,140,2.0,3.0,64,0.00,,,0.00,Wunderground v.1.15,2013-06-21 21:33:00,
2013-06-21 17:38:00,78.1,65.8,30.23,ESE,121,2.0,4.0,66,0.00,,,0.00,Wunderground v.1.15,2013-06-21 21:38:00,
2013-06-21 17:44:00,77.9,65.2,30.23,SSE,150,2.0,3.0,65,0.00,,,0.00,Wunderground v.1.15,2013-06-21 21:44:00,
2013-06-21 17:50:00,78.0,65.3,30.23,SE,143,1.0,1.0,65,0.00,,,0.00,Wunderground v.1.15,2013-06-21 21:50:00,
2013-06-21 17:56:00,78.0,65.3,30.23,SSE,156,2.0,4.0,65,0.00,,,0.00,Wunderground v.1.15,2013-06-21 21:56:00,
2013-06-21 18:01:00,78.0,64.8,30.23,South,183,2.0,3.0,64,0.00,,,0.00,Wunderground v.1.15,2013-06-21 22:01:00,
2013-06-21 18:07:00,77.9,64.7,30.23,South,186,2.0,5.0,64,0.00,,,0.00,Wunderground v.1.15,2013-06-21 22:07:00,
2013-06-21 18:12:00,77.9,65.2,30.23,South,174,2.0,3.0,65,0.00,,,0.00,Wunderground v.1.15,2013-06-21 22:12:00,
2013-06-21 18:17:00,77.8,64.2,30.23,SSE,167,1.0,3.0,63,0.00,,,0.00,Wunderground v.1.15,2013-06-21 22:17:00,
2013-06-21 18:23:00,77.6,64.0,30.23,South,172,2.0,3.0,63,0.00,,,0.00,Wunderground v.1.15,2013-06-21 22:23:00,
2013-06-21 18:29:00,77.6,64.9,30.24,South,173,2.0,4.0,65,0.00,,,0.00,Wunderground v.1.15,2013-06-21 22:29:00,
2013-06-21 18:35:00,77.5,64.8,30.24,SSW,193,2.0,3.0,65,0.00,,,0.00,Wunderground v.1.15,2013-06-21 22:35:00,
2013-06-21 18:41:00,77.4,64.7,30.23,SSW,193,2.0,3.0,65,0.00,,,0.00,Wunderground v.1.15,2013-06-21 22:41:00,
2013-06-21 18:47:00,77.4,65.1,30.23,SSW,193,1.0,3.0,66,0.00,,,0.00,Wunderground v.1.15,2013-06-21 22:47:00,
2013-06-21 18:52:00,77.3,65.1,30.23,SSW,193,0.0,3.0,66,0.00,,,0.00,Wunderground v.1.15,2013-06-21 22:52:00,
2013-06-21 18:58:00,77.2,65.0,30.23,South,172,1.0,3.0,66,0.00,,,0.00,Wunderground v.1.15,2013-06-21 22:58:00,
2013-06-21 19:03:00,77.2,65.4,30.22,SSE,149,1.0,2.0,67,0.00,,,0.00,Wunderground v.1.15,2013-06-21 23:03:00,
2013-06-21 19:09:00,77.1,64.9,30.22,SSE,152,1.0,2.0,66,0.00,,,0.00,Wunderground v.1.15,2013-06-21 23:09:00,
2013-06-21 19:15:00,77.1,65.3,30.23,SE,135,1.0,3.0,67,0.00,,,0.00,Wunderground v.1.15,2013-06-21 23:15:00,
2013-06-21 19:21:00,77.0,65.6,30.23,SSE,153,1.0,2.0,68,0.00,,,0.00,Wunderground v.1.15,2013-06-21 23:21:00,
2013-06-21 19:27:00,77.0,66.5,30.23,SSE,153,1.0,2.0,70,0.00,,,0.00,Wunderground v.1.15,2013-06-21 23:27:00,
2013-06-21 19:33:00,76.9,66.4,30.23,SSE,153,0.0,2.0,70,0.00,,,0.00,Wunderground v.1.15,2013-06-21 23:33:00,
2013-06-21 19:39:00,76.7,66.2,30.22,SSE,153,0.0,2.0,70,0.00,,,0.00,Wunderground v.1.15,2013-06-21 23:39:00,
2013-06-21 19:45:00,76.4,66.3,30.23,SSE,149,0.0,2.0,71,0.00,,,0.00,Wunderground v.1.15,2013-06-21 23:45:00,
2013-06-21 19:51:00,76.2,66.5,30.22,SSE,149,0.0,2.0,72,0.00,,,0.00,Wunderground v.1.15,2013-06-21 23:51:00,
2013-06-21 19:56:00,76.0,66.7,30.22,SSE,149,0.0,2.0,73,0.00,,,0.00,Wunderground v.1.15,2013-06-21 23:56:00,
2013-06-21 20:01:00,75.7,66.4,30.22,SSE,149,0.0,2.0,73,0.00,,,0.00,Wunderground v.1.15,2013-06-22 00:01:00,
2013-06-21 20:07:00,75.5,66.6,30.22,SSE,149,0.0,2.0,74,0.00,,,0.00,Wunderground v.1.15,2013-06-22 00:07:00,
2013-06-21 20:13:00,75.2,66.7,30.22,SSE,149,0.0,0.0,75,0.00,,,0.00,Wunderground v.1.15,2013-06-22 00:13:00,
2013-06-21 20:19:00,75.0,66.5,30.22,SSE,149,0.0,0.0,75,0.00,,,0.00,Wunderground v.1.15,2013-06-22 00:19:00,
2013-06-21 20:25:00,74.7,66.6,30.22,SSE,149,0.0,0.0,76,0.00,,,0.00,Wunderground v.1.15,2013-06-22 00:25:00,
2013-06-21 20:30:00,74.4,66.7,30.22,SSE,149,0.0,0.0,77,0.00,,,0.00,Wunderground v.1.15,2013-06-22 00:30:00,
2013-06-21 20:36:00,74.1,66.4,30.22,SSE,149,0.0,0.0,77,0.00,,,0.00,Wunderground v.1.15,2013-06-22 00:36:00,
2013-06-21 20:42:00,73.8,66.1,30.22,SSE,149,0.0,0.0,77,0.00,,,0.00,Wunderground v.1.15,2013-06-22 00:42:00,
2013-06-21 20:48:00,73.5,66.2,30.22,SSE,149,0.0,0.0,78,0.00,,,0.00,Wunderground v.1.15,2013-06-22 00:48:00,
2013-06-21 20:53:00,73.1,66.2,30.22,SSE,149,0.0,0.0,79,0.00,,,0.00,Wunderground v.1.15,2013-06-22 00:53:00,
2013-06-21 20:59:00,73.0,66.5,30.22,SSE,153,0.0,3.0,80,0.00,,,0.00,Wunderground v.1.15,2013-06-22 00:59:00,
2013-06-21 21:05:00,72.9,66.7,30.22,SSE,153,0.0,0.0,81,0.00,,,0.00,Wunderground v.1.15,2013-06-22 01:05:00,
2013-06-21 21:11:00,72.8,66.6,30.22,SSE,153,0.0,0.0,81,0.00,,,0.00,Wunderground v.1.15,2013-06-22 01:11:00,
2013-06-21 21:17:00,72.6,66.4,30.22,SSE,153,0.0,0.0,81,0.00,,,0.00,Wunderground v.1.15,2013-06-22 01:17:00,
2013-06-21 21:23:00,72.6,66.8,30.22,SSW,203,0.0,1.0,82,0.00,,,0.00,Wunderground v.1.15,2013-06-22 01:23:00,
2013-06-21 21:29:00,72.5,67.0,30.22,SSE,147,1.0,2.0,83,0.00,,,0.00,Wunderground v.1.15,2013-06-22 01:29:00,
2013-06-21 21:35:00,72.9,67.8,30.22,SSW,198,2.0,9.0,84,0.00,,,0.00,Wunderground v.1.15,2013-06-22 01:35:00,
2013-06-21 21:41:00,73.2,68.1,30.23,South,178,3.0,4.0,84,0.00,,,0.00,Wunderground v.1.15,2013-06-22 01:41:00,
2013-06-21 21:46:00,73.4,67.9,30.23,South,180,2.0,4.0,83,0.00,,,0.00,Wunderground v.1.15,2013-06-22 01:46:00,
2013-06-21 21:52:00,73.5,68.0,30.23,South,177,2.0,5.0,83,0.00,,,0.00,Wunderground v.1.15,2013-06-22 01:52:00,
2013-06-21 21:58:00,73.7,68.2,30.23,SE,128,2.0,5.0,83,0.00,,,0.00,Wunderground v.1.15,2013-06-22 01:58:00,
2013-06-21 22:04:00,73.9,68.4,30.23,SSW,193,3.0,6.0,83,0.00,,,0.00,Wunderground v.1.15,2013-06-22 02:04:00,
2013-06-21 22:10:00,74.0,68.5,30.23,SSW,193,3.0,6.0,83,0.00,,,0.00,Wunderground v.1.15,2013-06-22 02:10:00,
2013-06-21 22:16:00,74.1,68.6,30.23,SSW,213,3.0,6.0,83,0.00,,,0.00,Wunderground v.1.15,2013-06-22 02:16:00,
2013-06-21 22:22:00,74.1,68.6,30.23,SE,136,3.0,6.0,83,0.00,,,0.00,Wunderground v.1.15,2013-06-22 02:22:00,
2013-06-21 22:27:00,74.0,68.5,30.23,SE,139,3.0,6.0,83,0.00,,,0.00,Wunderground v.1.15,2013-06-22 02:27:00,
2013-06-21 22:33:00,73.9,68.4,30.23,South,171,3.0,6.0,83,0.00,,,0.00,Wunderground v.1.15,2013-06-22 02:33:00,
2013-06-21 22:39:00,73.9,68.8,30.23,SSE,163,3.0,6.0,84,0.00,,,0.00,Wunderground v.1.15,2013-06-22 02:39:00,
2013-06-21 22:45:00,73.8,68.7,30.23,South,174,1.0,6.0,84,0.00,,,0.00,Wunderground v.1.15,2013-06-22 02:45:00,
2013-06-21 22:51:00,73.7,68.2,30.23,ENE,64,1.0,6.0,83,0.00,,,0.00,Wunderground v.1.15,2013-06-22 02:51:00,
2013-06-21 22:57:00,73.5,68.4,30.23,South,169,1.0,6.0,84,0.00,,,0.00,Wunderground v.1.15,2013-06-22 02:57:00,
2013-06-21 23:03:00,73.4,68.3,30.23,South,169,1.0,9.0,84,0.00,,,0.00,Wunderground v.1.15,2013-06-22 03:03:00,
2013-06-21 23:09:00,73.2,67.7,30.23,SW,218,3.0,9.0,83,0.00,,,0.00,Wunderground v.1.15,2013-06-22 03:09:00,
2013-06-21 23:15:00,73.1,67.6,30.23,SSW,203,2.0,4.0,83,0.00,,,0.00,Wunderground v.1.15,2013-06-22 03:15:00,
2013-06-21 23:21:00,73.1,67.6,30.23,ESE,115,2.0,4.0,83,0.00,,,0.00,Wunderground v.1.15,2013-06-22 03:21:00,
2013-06-21 23:27:00,73.0,67.5,30.23,South,173,3.0,5.0,83,0.00,,,0.00,Wunderground v.1.15,2013-06-22 03:27:00,
2013-06-21 23:33:00,72.9,67.4,30.23,South,188,2.0,4.0,83,0.00,,,0.00,Wunderground v.1.15,2013-06-22 03:33:00,
2013-06-21 23:39:00,72.7,67.2,30.23,South,182,2.0,5.0,83,0.00,,,0.00,Wunderground v.1.15,2013-06-22 03:39:00,
2013-06-21 23:44:00,72.6,67.1,30.23,South,171,3.0,4.0,83,0.00,,,0.00,Wunderground v.1.15,2013-06-22 03:44:00,
2013-06-21 23:50:00,72.4,66.9,30.23,SSE,152,3.0,4.0,83,0.00,,,0.00,Wunderground v.1.15,2013-06-22 03:50:00,
2013-06-21 23:56:00,72.2,66.7,30.23,SSW,211,3.0,5.0,83,0.00,,,0.00,Wunderground v.1.15,2013-06-22 03:56:00,